Bethel Airport (BET/PABE)




Flight Aircraft Arriving
GRZ5379 SF34
PAKN - King Salmon Airport
United StatesAlaska King Salmon, Alaska
Flight Aircraft Departing
GRZ5378 SF34
PAKN - King Salmon Airport
United StatesAlaska King Salmon, Alaska
Airport Information
Location: Bethel, US
Coordinates: 60.7786 / -161.837
Elevation:
Time Offset:
Local Time:
UTC Time:
Jet A Price: $0.92/lbs

Current Weather
METAR: PABE 051453Z AUTO 02012KT 10SM CLR M18/M21 A2985 RMK AO2 SLP112 I1000 I3000 T11831206 58016 TSNO
TAF: PABE 051131Z 0512/0612 02010KT P6SM SKC FM052100 02020G27KT P6SM SKC

Recent Arrivals
Date Flight Type Depart
Recent Departures
Date Flight Type Arrive